sensor_id;sensor_type;location;lat;lon;timestamp;pressure;altitude;pressure_sealevel;temperature;humidity
3780;BME280;1905;52.482;9.802;2023-04-01T00:00:28;99008.56;;;11.06;86.03
3780;BME280;1905;52.482;9.802;2023-04-01T00:02:56;99011.81;;;11.09;86.05
3780;BME280;1905;52.482;9.802;2023-04-01T00:05:25;99008.66;;;11.04;86.12
3780;BME280;1905;52.482;9.802;2023-04-01T00:07:55;99005.09;;;11.05;86.21
3780;BME280;1905;52.482;9.802;2023-04-01T00:10:22;99010.38;;;11.05;85.88
3780;BME280;1905;52.482;9.802;2023-04-01T00:12:50;99006.03;;;11.04;86.20
3780;BME280;1905;52.482;9.802;2023-04-01T00:15:17;99005.09;;;11.05;85.46
3780;BME280;1905;52.482;9.802;2023-04-01T00:17:45;99005.09;;;11.05;85.97
3780;BME280;1905;52.482;9.802;2023-04-01T00:20:13;99001.72;;;11.03;85.63
3780;BME280;1905;52.482;9.802;2023-04-01T00:22:42;99000.03;;;11.02;86.01
3780;BME280;1905;52.482;9.802;2023-04-01T00:25:09;99004.44;;;11.02;85.93
3780;BME280;1905;52.482;9.802;2023-04-01T00:27:42;99000.03;;;11.02;86.01
3780;BME280;1905;52.482;9.802;2023-04-01T00:30:10;99002.44;;;11.05;86.09
3780;BME280;1905;52.482;9.802;2023-04-01T00:32:38;99007.81;;;11.04;85.74
3780;BME280;1905;52.482;9.802;2023-04-01T00:35:06;99005.53;;;10.99;85.75
3780;BME280;1905;52.482;9.802;2023-04-01T00:37:35;99001.94;;;11.00;86.27
3780;BME280;1905;52.482;9.802;2023-04-01T00:40:06;98999.38;;;10.99;86.34
3780;BME280;1905;52.482;9.802;2023-04-01T00:42:34;99000.97;;;11.01;86.23
3780;BME280;1905;52.482;9.802;2023-04-01T00:45:25;99000.03;;;11.02;85.72
3780;BME280;1905;52.482;9.802;2023-04-01T00:47:54;99004.34;;;11.03;85.81
3780;BME280;1905;52.482;9.802;2023-04-01T00:50:25;99001.94;;;11.00;85.80
3780;BME280;1905;52.482;9.802;2023-04-01T00:52:54;99008.28;;;10.98;86.46
3780;BME280;1905;52.482;9.802;2023-04-01T00:55:23;99000.25;;;10.99;86.18
3780;BME280;1905;52.482;9.802;2023-04-01T00:57:53;99007.44;;;10.97;86.63
3780;BME280;1905;52.482;9.802;2023-04-01T01:00:22;99004.78;;;10.97;86.66
3780;BME280;1905;52.482;9.802;2023-04-01T01:02:50;99006.25;;;11.01;86.18
3780;BME280;1905;52.482;9.802;2023-04-01T01:05:21;99010.81;;;10.99;87.21
3780;BME280;1905;52.482;9.802;2023-04-01T01:08:00;99012.72;;;10.97;86.36
3780;BME280;1905;52.482;9.802;2023-04-01T01:10:33;99008.28;;;10.98;85.92
3780;BME280;1905;52.482;9.802;2023-04-01T01:13:09;99014.16;;;11.01;86.72
3780;BME280;1905;52.482;9.802;2023-04-01T01:15:42;99008.28;;;10.98;86.53
3780;BME280;1905;52.482;9.802;2023-04-01T01:18:19;99006.59;;;10.97;86.40
3780;BME280;1905;52.482;9.802;2023-04-01T01:21:15;99007.31;;;10.99;86.00
3780;BME280;1905;52.482;9.802;2023-04-01T01:24:02;99005.75;;;10.96;85.48
3780;BME280;1905;52.482;9.802;2023-04-01T01:26:51;99005.53;;;10.99;85.36
3780;BME280;1905;52.482;9.802;2023-04-01T01:29:53;99005.53;;;10.99;85.39
3780;BME280;1905;52.482;9.802;2023-04-01T01:32:59;99001.31;;;10.97;86.75
3780;BME280;1905;52.482;9.802;2023-04-01T01:35:40;99008.50;;;10.95;86.65
3780;BME280;1905;52.482;9.802;2023-04-01T01:38:17;99011.25;;;10.93;86.49
3780;BME280;1905;52.482;9.802;2023-04-01T01:40:55;99003.22;;;10.95;86.38
3780;BME280;1905;52.482;9.802;2023-04-01T01:43:26;99011.03;;;10.96;85.30
3780;BME280;1905;52.482;9.802;2023-04-01T01:45:58;99004.78;;;10.97;85.84
3780;BME280;1905;52.482;9.802;2023-04-01T01:48:29;99014.38;;;10.98;85.65
3780;BME280;1905;52.482;9.802;2023-04-01T01:50:59;99008.28;;;10.98;85.89
3780;BME280;1905;52.482;9.802;2023-04-01T01:53:27;99008.38;;;10.96;86.00
3780;BME280;1905;52.482;9.802;2023-04-01T01:55:55;99010.38;;;10.93;85.83
3780;BME280;1905;52.482;9.802;2023-04-01T01:58:25;99009.31;;;10.95;85.89
3780;BME280;1905;52.482;9.802;2023-04-01T02:00:55;99012.72;;;10.97;85.57
3780;BME280;1905;52.482;9.802;2023-04-01T02:03:27;99011.03;;;10.96;85.00
3780;BME280;1905;52.482;9.802;2023-04-01T02:05:57;99003.81;;;10.98;85.74
3780;BME280;1905;52.482;9.802;2023-04-01T02:08:32;99012.72;;;10.97;84.77
3780;BME280;1905;52.482;9.802;2023-04-01T02:11:03;99009.31;;;10.95;85.22
3780;BME280;1905;52.482;9.802;2023-04-01T02:13:40;99009.44;;;10.94;85.35
3780;BME280;1905;52.482;9.802;2023-04-01T02:16:11;99011.44;;;10.90;85.75
3780;BME280;1905;52.482;9.802;2023-04-01T02:18:42;99013.16;;;10.91;85.44
3780;BME280;1905;52.482;9.802;2023-04-01T02:21:12;99007.88;;;10.91;85.65
3780;BME280;1905;52.482;9.802;2023-04-01T02:23:42;99004.59;;;10.88;85.72
3780;BME280;1905;52.482;9.802;2023-04-01T02:26:11;99004.72;;;10.86;85.98
3780;BME280;1905;52.482;9.802;2023-04-01T02:28:41;99008.94;;;10.89;85.51
3780;BME280;1905;52.482;9.802;2023-04-01T02:31:10;99009.78;;;10.89;85.81
3780;BME280;1905;52.482;9.802;2023-04-01T02:33:39;99012.53;;;10.88;85.97
3780;BME280;1905;52.482;9.802;2023-04-01T02:36:10;99011.66;;;10.87;85.75
3780;BME280;1905;52.482;9.802;2023-04-01T02:38:41;99013.50;;;10.87;85.51
3780;BME280;1905;52.482;9.802;2023-04-01T02:41:13;99011.91;;;10.84;85.40
3780;BME280;1905;52.482;9.802;2023-04-01T02:43:40;99011.91;;;10.84;85.53
3780;BME280;1905;52.482;9.802;2023-04-01T02:46:08;99007.69;;;10.82;85.75
3780;BME280;1905;52.482;9.802;2023-04-01T02:48:36;99017.19;;;10.84;85.69
3780;BME280;1905;52.482;9.802;2023-04-01T02:51:03;99012.13;;;10.81;85.44
3780;BME280;1905;52.482;9.802;2023-04-01T02:53:31;99020.06;;;10.81;85.11
3780;BME280;1905;52.482;9.802;2023-04-01T02:56:00;99017.63;;;10.78;85.93
3780;BME280;1905;52.482;9.802;2023-04-01T02:58:27;99018.47;;;10.79;85.50
3780;BME280;1905;52.482;9.802;2023-04-01T03:00:55;99015.72;;;10.80;86.01
3780;BME280;1905;52.482;9.802;2023-04-01T03:03:23;99024.69;;;10.77;85.22
3780;BME280;1905;52.482;9.802;2023-04-01T03:05:50;99026.50;;;10.77;85.78
3780;BME280;1905;52.482;9.802;2023-04-01T03:08:21;99029.03;;;10.79;85.84
3780;BME280;1905;52.482;9.802;2023-04-01T03:10:49;99022.19;;;10.76;85.35
3780;BME280;1905;52.482;9.802;2023-04-01T03:13:18;99025.75;;;10.75;85.62
3780;BME280;1905;52.482;9.802;2023-04-01T03:15:45;99021.44;;;10.74;85.66
3780;BME280;1905;52.482;9.802;2023-04-01T03:18:13;99022.41;;;10.73;85.52
3780;BME280;1905;52.482;9.802;2023-04-01T03:20:42;99025.03;;;10.73;85.73
3780;BME280;1905;52.482;9.802;2023-04-01T03:23:09;99027.69;;;10.73;85.82
3780;BME280;1905;52.482;9.802;2023-04-01T03:25:38;99035.59;;;10.73;85.20
3780;BME280;1905;52.482;9.802;2023-04-01T03:28:06;99033.06;;;10.71;85.85
3780;BME280;1905;52.482;9.802;2023-04-01T03:30:34;99023.34;;;10.72;85.35
3780;BME280;1905;52.482;9.802;2023-04-01T03:33:02;99033.25;;;10.68;86.20
3780;BME280;1905;52.482;9.802;2023-04-01T03:35:31;99035.91;;;10.68;85.84
3780;BME280;1905;52.482;9.802;2023-04-01T03:37:59;99032.19;;;10.71;86.20
3780;BME280;1905;52.482;9.802;2023-04-01T03:40:27;99036.53;;;10.72;85.73
3780;BME280;1905;52.482;9.802;2023-04-01T03:42:56;99036.75;;;10.69;86.52
3780;BME280;1905;52.482;9.802;2023-04-01T03:45:24;99031.38;;;10.70;86.39
3780;BME280;1905;52.482;9.802;2023-04-01T03:47:53;99036.75;;;10.69;86.02
3780;BME280;1905;52.482;9.802;2023-04-01T03:50:21;99039.41;;;10.69;86.12
3780;BME280;1905;52.482;9.802;2023-04-01T03:52:49;99043.81;;;10.68;85.31
3780;BME280;1905;52.482;9.802;2023-04-01T03:55:17;99036.03;;;10.67;86.01
3780;BME280;1905;52.482;9.802;2023-04-01T03:57:46;99036.97;;;10.66;86.24
3780;BME280;1905;52.482;9.802;2023-04-01T04:00:17;99045.72;;;10.66;85.68
3780;BME280;1905;52.482;9.802;2023-04-01T04:02:53;99037.94;;;10.65;85.70
3780;BME280;1905;52.482;9.802;2023-04-01T04:05:26;99044.16;;;10.64;86.37
3780;BME280;1905;52.482;9.802;2023-04-01T04:07:54;99045.09;;;10.63;85.83
3780;BME280;1905;52.482;9.802;2023-04-01T04:10:22;99047.53;;;10.66;85.91
3780;BME280;1905;52.482;9.802;2023-04-01T04:12:51;99039.81;;;10.63;85.42
3780;BME280;1905;52.482;9.802;2023-04-01T04:15:21;99047.72;;;10.63;85.58
3780;BME280;1905;52.482;9.802;2023-04-01T04:17:50;99045.09;;;10.63;85.54
3780;BME280;1905;52.482;9.802;2023-04-01T04:20:22;99048.50;;;10.65;85.11
3780;BME280;1905;52.482;9.802;2023-04-01T04:22:50;99050.38;;;10.63;85.13
3780;BME280;1905;52.482;9.802;2023-04-01T04:25:18;99045.09;;;10.63;85.80
3780;BME280;1905;52.482;9.802;2023-04-01T04:27:46;99046.28;;;10.59;86.39
3780;BME280;1905;52.482;9.802;2023-04-01T04:30:14;99054.06;;;10.60;85.49
3780;BME280;1905;52.482;9.802;2023-04-01T04:32:42;99054.19;;;10.59;85.77
3780;BME280;1905;52.482;9.802;2023-04-01T04:35:11;99057.78;;;10.58;86.18
3780;BME280;1905;52.482;9.802;2023-04-01T04:37:40;99059.56;;;10.57;86.04
3780;BME280;1905;52.482;9.802;2023-04-01T04:40:10;99063.06;;;10.58;85.89
3780;BME280;1905;52.482;9.802;2023-04-01T04:42:38;99068.34;;;10.58;86.14
3780;BME280;1905;52.482;9.802;2023-04-01T04:45:09;99064.97;;;10.56;86.32
3780;BME280;1905;52.482;9.802;2023-04-01T04:47:44;99063.47;;;10.52;87.11
3780;BME280;1905;52.482;9.802;2023-04-01T04:50:12;99061.81;;;10.51;86.96
3780;BME280;1905;52.482;9.802;2023-04-01T04:52:41;99066.88;;;10.54;86.43
3780;BME280;1905;52.482;9.802;2023-04-01T04:55:09;99068.75;;;10.52;86.73
3780;BME280;1905;52.482;9.802;2023-04-01T04:57:38;99073.81;;;10.55;86.34
3780;BME280;1905;52.482;9.802;2023-04-01T05:00:07;99070.47;;;10.53;86.86
3780;BME280;1905;52.482;9.802;2023-04-01T05:02:51;99075.94;;;10.50;87.26
3780;BME280;1905;52.482;9.802;2023-04-01T05:05:19;99069.81;;;10.49;87.52
3780;BME280;1905;52.482;9.802;2023-04-01T05:07:48;99077.84;;;10.48;87.05
3780;BME280;1905;52.482;9.802;2023-04-01T05:10:16;99076.78;;;10.50;87.05
3780;BME280;1905;52.482;9.802;2023-04-01T05:12:43;99077.53;;;10.52;87.04
3780;BME280;1905;52.482;9.802;2023-04-01T05:15:16;99080.28;;;10.51;87.27
3780;BME280;1905;52.482;9.802;2023-04-01T05:17:44;99077.84;;;10.48;87.16
3780;BME280;1905;52.482;9.802;2023-04-01T05:20:13;99075.22;;;10.48;86.85
3780;BME280;1905;52.482;9.802;2023-04-01T05:22:41;99070.88;;;10.47;87.14
3780;BME280;1905;52.482;9.802;2023-04-01T05:25:10;99082.19;;;10.49;87.28
3780;BME280;1905;52.482;9.802;2023-04-01T05:27:39;99083.13;;;10.48;87.08
3780;BME280;1905;52.482;9.802;2023-04-01T05:30:08;99087.56;;;10.47;86.88
3780;BME280;1905;52.482;9.802;2023-04-01T05:32:55;99084.91;;;10.47;86.43
3780;BME280;1905;52.482;9.802;2023-04-01T05:35:24;99084.84;;;10.49;86.99
3780;BME280;1905;52.482;9.802;2023-04-01T05:37:51;99078.69;;;10.48;87.55
3780;BME280;1905;52.482;9.802;2023-04-01T05:40:22;99087.56;;;10.47;88.56
3780;BME280;1905;52.482;9.802;2023-04-01T05:42:49;99093.47;;;10.51;87.70
3780;BME280;1905;52.482;9.802;2023-04-01T05:45:17;99087.69;;;10.46;88.49
3780;BME280;1905;52.482;9.802;2023-04-01T05:48:03;99091.97;;;10.47;88.47
3780;BME280;1905;52.482;9.802;2023-04-01T05:50:36;99094.53;;;10.48;88.76
3780;BME280;1905;52.482;9.802;2023-04-01T05:53:04;99095.25;;;10.50;87.79
3780;BME280;1905;52.482;9.802;2023-04-01T05:55:35;99096.22;;;10.49;87.87
3780;BME280;1905;52.482;9.802;2023-04-01T05:58:05;99096.84;;;10.53;88.41
3780;BME280;1905;52.482;9.802;2023-04-01T06:00:34;99105.72;;;10.52;87.77
3780;BME280;1905;52.482;9.802;2023-04-01T06:03:02;99101.06;;;10.55;87.98
3780;BME280;1905;52.482;9.802;2023-04-01T06:05:34;99102.78;;;10.56;87.95
3780;BME280;1905;52.482;9.802;2023-04-01T06:08:10;99108.66;;;10.60;87.93
3780;BME280;1905;52.482;9.802;2023-04-01T06:13:42;99112.06;;;10.62;87.94
3780;BME280;1905;52.482;9.802;2023-04-01T06:16:20;99107.72;;;10.61;88.59
3780;BME280;1905;52.482;9.802;2023-04-01T06:18:58;99113.53;;;10.66;88.31
3780;BME280;1905;52.482;9.802;2023-04-01T06:21:54;99108.03;;;10.69;88.19
3780;BME280;1905;52.482;9.802;2023-04-01T06:24:42;99112.38;;;10.70;89.08
3780;BME280;1905;52.482;9.802;2023-04-01T06:27:22;99117.31;;;10.74;89.88
3780;BME280;1905;52.482;9.802;2023-04-01T06:29:58;99116.38;;;10.75;89.43
3780;BME280;1905;52.482;9.802;2023-04-01T06:32:53;99124.91;;;10.79;89.46
3780;BME280;1905;52.482;9.802;2023-04-01T06:35:35;99120.41;;;10.81;89.04
3780;BME280;1905;52.482;9.802;2023-04-01T06:38:20;99123.56;;;10.86;89.03
3780;BME280;1905;52.482;9.802;2023-04-01T06:41:32;99128.50;;;10.91;89.83
3780;BME280;1905;52.482;9.802;2023-04-01T06:44:14;99123.75;;;10.96;89.12
3780;BME280;1905;52.482;9.802;2023-04-01T06:47:15;99127.25;;;10.96;88.82
3780;BME280;1905;52.482;9.802;2023-04-01T06:50:19;99128.50;;;11.03;90.33
3780;BME280;1905;52.482;9.802;2023-04-01T06:53:12;99129.13;;;11.07;90.38
3780;BME280;1905;52.482;9.802;2023-04-01T06:56:05;99132.63;;;11.07;91.02
3780;BME280;1905;52.482;9.802;2023-04-01T06:58:42;99133.97;;;11.13;90.85
3780;BME280;1905;52.482;9.802;2023-04-01T07:01:16;99138.94;;;11.17;89.04
3780;BME280;1905;52.482;9.802;2023-04-01T07:03:50;99140.28;;;11.23;89.23
3780;BME280;1905;52.482;9.802;2023-04-01T07:06:26;99147.91;;;11.27;89.07
3780;BME280;1905;52.482;9.802;2023-04-01T07:08:59;99142.41;;;11.30;89.19
3780;BME280;1905;52.482;9.802;2023-04-01T07:11:53;99138.38;;;11.38;89.28
3780;BME280;1905;52.482;9.802;2023-04-01T07:15:03;99148.94;;;11.38;89.28
3780;BME280;1905;52.482;9.802;2023-04-01T07:17:36;99146.81;;;11.43;89.97
3780;BME280;1905;52.482;9.802;2023-04-01T07:20:13;99148.28;;;11.47;90.13
3780;BME280;1905;52.482;9.802;2023-04-01T07:22:44;99150.38;;;11.54;89.45
3780;BME280;1905;52.482;9.802;2023-04-01T07:25:38;99150.75;;;11.61;88.97
3780;BME280;1905;52.482;9.802;2023-04-01T07:28:30;99156.59;;;11.66;88.80
3780;BME280;1905;52.482;9.802;2023-04-01T07:31:15;99158.06;;;11.70;87.98
3780;BME280;1905;52.482;9.802;2023-04-01T07:33:56;99159.28;;;11.77;89.58
3780;BME280;1905;52.482;9.802;2023-04-01T07:36:33;99169.66;;;11.80;88.36
3780;BME280;1905;52.482;9.802;2023-04-01T07:39:11;99163.84;;;11.87;88.18
3780;BME280;1905;52.482;9.802;2023-04-01T07:42:01;99173.84;;;11.95;88.21
3780;BME280;1905;52.482;9.802;2023-04-01T07:44:42;99175.28;;;11.99;87.58
3780;BME280;1905;52.482;9.802;2023-04-01T07:47:37;99178.97;;;12.09;87.37
3780;BME280;1905;52.482;9.802;2023-04-01T07:50:16;99180.13;;;12.05;88.53
3780;BME280;1905;52.482;9.802;2023-04-01T07:52:55;99189.69;;;12.19;87.54
3780;BME280;1905;52.482;9.802;2023-04-01T07:55:32;99190.34;;;12.22;87.76
3780;BME280;1905;52.482;9.802;2023-04-01T07:58:09;99193.97;;;12.32;86.68
3780;BME280;1905;52.482;9.802;2023-04-01T08:00:50;99196.88;;;12.40;86.32
3780;BME280;1905;52.482;9.802;2023-04-01T08:03:35;99190.41;;;12.44;86.50
3780;BME280;1905;52.482;9.802;2023-04-01T08:06:14;99199.09;;;12.46;87.62
3780;BME280;1905;52.482;9.802;2023-04-01T08:08:53;99203.94;;;12.52;86.78
3780;BME280;1905;52.482;9.802;2023-04-01T08:11:53;99202.34;;;12.61;86.46
3780;BME280;1905;52.482;9.802;2023-04-01T08:14:52;99207.09;;;12.69;86.13
3780;BME280;1905;52.482;9.802;2023-04-01T08:18:02;99209.03;;;12.78;86.12
3780;BME280;1905;52.482;9.802;2023-04-01T08:20:34;99212.44;;;12.80;86.67
3780;BME280;1905;52.482;9.802;2023-04-01T08:23:11;99208.34;;;12.87;86.38
3780;BME280;1905;52.482;9.802;2023-04-01T08:25:48;99211.25;;;12.95;86.04
3780;BME280;1905;52.482;9.802;2023-04-01T08:28:24;99215.84;;;13.04;85.86
3780;BME280;1905;52.482;9.802;2023-04-01T08:31:03;99223.22;;;13.11;85.98
3780;BME280;1905;52.482;9.802;2023-04-01T08:33:33;99218.28;;;13.18;86.43
3780;BME280;1905;52.482;9.802;2023-04-01T08:36:09;99214.44;;;13.22;85.68
3780;BME280;1905;52.482;9.802;2023-04-01T08:38:43;99221.06;;;13.28;85.02
3780;BME280;1905;52.482;9.802;2023-04-01T08:41:48;99221.19;;;13.37;85.45
3780;BME280;1905;52.482;9.802;2023-04-01T08:45:24;99213.34;;;13.47;85.33
3780;BME280;1905;52.482;9.802;2023-04-01T08:48:16;99224.56;;;13.61;85.36
3780;BME280;1905;52.482;9.802;2023-04-01T08:50:58;99224.81;;;13.69;85.84
3780;BME280;1905;52.482;9.802;2023-04-01T08:53:47;99225.84;;;13.78;85.17
3780;BME280;1905;52.482;9.802;2023-04-01T08:56:26;99225.75;;;13.68;84.64
3780;BME280;1905;52.482;9.802;2023-04-01T08:59:27;99222.13;;;13.81;85.37
3780;BME280;1905;52.482;9.802;2023-04-01T09:02:32;99229.97;;;13.82;84.58
3780;BME280;1905;52.482;9.802;2023-04-01T09:05:40;99228.38;;;13.91;83.92
3780;BME280;1905;52.482;9.802;2023-04-01T09:08:28;99233.69;;;13.91;83.44
3780;BME280;1905;52.482;9.802;2023-04-01T09:11:09;99230.19;;;13.90;84.22
3780;BME280;1905;52.482;9.802;2023-04-01T09:14:26;99230.00;;;14.14;85.89
3780;BME280;1905;52.482;9.802;2023-04-01T09:17:40;99235.28;;;14.25;84.33
3780;BME280;1905;52.482;9.802;2023-04-01T09:20:38;99238.41;;;14.30;83.63
3780;BME280;1905;52.482;9.802;2023-04-01T09:23:19;99237.94;;;14.36;84.23
3780;BME280;1905;52.482;9.802;2023-04-01T09:26:08;99239.31;;;14.51;84.14
3780;BME280;1905;52.482;9.802;2023-04-01T09:28:47;99241.00;;;14.52;83.27
3780;BME280;1905;52.482;9.802;2023-04-01T09:31:40;99238.06;;;14.66;83.84
3780;BME280;1905;52.482;9.802;2023-04-01T09:34:49;99250.19;;;14.59;81.87
3780;BME280;1905;52.482;9.802;2023-04-01T09:37:34;99249.84;;;14.73;83.84
3780;BME280;1905;52.482;9.802;2023-04-01T09:40:14;99250.19;;;14.80;83.72
3780;BME280;1905;52.482;9.802;2023-04-01T09:43:27;99252.47;;;14.84;82.54
3780;BME280;1905;52.482;9.802;2023-04-01T09:46:19;99256.06;;;14.95;83.30
3780;BME280;1905;52.482;9.802;2023-04-01T09:49:13;99261.06;;;14.98;82.33
3780;BME280;1905;52.482;9.802;2023-04-01T09:51:53;99255.25;;;15.04;83.12
3780;BME280;1905;52.482;9.802;2023-04-01T09:54:42;99261.59;;;15.12;82.43
3780;BME280;1905;52.482;9.802;2023-04-01T09:57:36;99265.72;;;15.16;82.58
3780;BME280;1905;52.482;9.802;2023-04-01T10:00:40;99270.88;;;15.18;81.49
3780;BME280;1905;52.482;9.802;2023-04-01T10:03:38;99279.00;;;15.16;81.68
3780;BME280;1905;52.482;9.802;2023-04-01T10:06:27;99276.19;;;15.18;81.19
3780;BME280;1905;52.482;9.802;2023-04-01T10:09:37;99282.81;;;15.23;82.04
3780;BME280;1905;52.482;9.802;2023-04-01T10:18:46;99286.44;;;15.22;82.60
3780;BME280;1905;52.482;9.802;2023-04-01T10:21:28;99290.09;;;15.21;82.42
3780;BME280;1905;52.482;9.802;2023-04-01T10:24:19;99292.75;;;15.21;81.62
3780;BME280;1905;52.482;9.802;2023-04-01T10:27:16;99293.72;;;15.20;82.47
3780;BME280;1905;52.482;9.802;2023-04-01T10:30:45;99293.84;;;15.19;82.27
3780;BME280;1905;52.482;9.802;2023-04-01T10:34:05;99290.47;;;15.17;81.97
3780;BME280;1905;52.482;9.802;2023-04-01T10:48:41;99299.75;;;15.02;81.09
3780;BME280;1905;52.482;9.802;2023-04-01T10:51:38;99304.22;;;15.01;81.11
3780;BME280;1905;52.482;9.802;2023-04-01T10:54:51;99311.47;;;14.99;81.56
3780;BME280;1905;52.482;9.802;2023-04-01T10:58:08;99310.88;;;14.96;81.09
3780;BME280;1905;52.482;9.802;2023-04-01T11:01:27;99312.94;;;14.92;80.67
3780;BME280;1905;52.482;9.802;2023-04-01T11:04:55;99321.31;;;14.87;81.02
3780;BME280;1905;52.482;9.802;2023-04-01T11:08:10;99319.66;;;14.86;79.83
3780;BME280;1905;52.482;9.802;2023-04-01T11:11:13;99328.84;;;14.82;79.98
3780;BME280;1905;52.482;9.802;2023-04-01T11:14:16;99327.38;;;14.78;80.88
3780;BME280;1905;52.482;9.802;2023-04-01T11:17:18;99334.66;;;14.76;80.71
3780;BME280;1905;52.482;9.802;2023-04-01T11:20:01;99336.84;;;14.71;80.85
3780;BME280;1905;52.482;9.802;2023-04-01T11:22:48;99344.09;;;14.69;80.47
3780;BME280;1905;52.482;9.802;2023-04-01T11:28:50;99347.00;;;14.66;80.59
3780;BME280;1905;52.482;9.802;2023-04-01T11:31:35;99344.34;;;14.66;80.61
3780;BME280;1905;52.482;9.802;2023-04-01T11:34:16;99347.97;;;14.65;80.66
3780;BME280;1905;52.482;9.802;2023-04-01T11:36:56;99346.31;;;14.64;81.00
3780;BME280;1905;52.482;9.802;2023-04-01T11:39:33;99345.44;;;14.64;81.19
3780;BME280;1905;52.482;9.802;2023-04-01T11:42:41;99353.28;;;14.65;80.96
3780;BME280;1905;52.482;9.802;2023-04-01T11:45:53;99356.09;;;14.64;80.89
3780;BME280;1905;52.482;9.802;2023-04-01T11:48:44;99355.00;;;14.66;81.01
3780;BME280;1905;52.482;9.802;2023-04-01T11:51:50;99365.38;;;14.69;80.49
3780;BME280;1905;52.482;9.802;2023-04-01T11:57:35;99377.41;;;14.73;80.77
3780;BME280;1905;52.482;9.802;2023-04-01T12:00:54;99377.41;;;14.73;81.38
3780;BME280;1905;52.482;9.802;2023-04-01T12:03:40;99381.06;;;14.72;80.48
3780;BME280;1905;52.482;9.802;2023-04-01T12:06:14;99373.09;;;14.72;81.31
3780;BME280;1905;52.482;9.802;2023-04-01T12:08:49;99384.44;;;14.74;81.20
3780;BME280;1905;52.482;9.802;2023-04-01T12:11:27;99388.78;;;14.75;81.56
3780;BME280;1905;52.482;9.802;2023-04-01T12:14:04;99389.75;;;14.74;81.31
3780;BME280;1905;52.482;9.802;2023-04-01T12:16:52;99400.13;;;14.77;81.35
3780;BME280;1905;52.482;9.802;2023-04-01T12:19:32;99398.44;;;14.76;81.12
3780;BME280;1905;52.482;9.802;2023-04-01T12:22:17;99394.81;;;14.77;81.32
3780;BME280;1905;52.482;9.802;2023-04-01T12:24:49;99403.50;;;14.79;81.19
3780;BME280;1905;52.482;9.802;2023-04-01T12:27:52;99408.72;;;14.81;80.55
3780;BME280;1905;52.482;9.802;2023-04-01T12:30:37;99406.06;;;14.81;80.87
3780;BME280;1905;52.482;9.802;2023-04-01T12:33:48;99403.25;;;14.82;81.21
3780;BME280;1905;52.482;9.802;2023-04-01T12:36:28;99406.63;;;14.84;80.91
3780;BME280;1905;52.482;9.802;2023-04-01T12:39:22;99406.28;;;14.89;80.88
3780;BME280;1905;52.482;9.802;2023-04-01T12:41:59;99408.09;;;14.88;81.16
3780;BME280;1905;52.482;9.802;2023-04-01T12:47:46;99409.25;;;14.96;81.37
3780;BME280;1905;52.482;9.802;2023-04-01T12:50:45;99417.69;;;15.01;81.61
3780;BME280;1905;52.482;9.802;2023-04-01T12:53:32;99419.66;;;14.99;80.81
3780;BME280;1905;52.482;9.802;2023-04-01T12:56:03;99428.34;;;15.01;80.96
3780;BME280;1905;52.482;9.802;2023-04-01T12:58:55;99437.31;;;15.00;80.47
3780;BME280;1905;52.482;9.802;2023-04-01T13:01:48;99442.72;;;14.98;81.00
3780;BME280;1905;52.482;9.802;2023-04-01T13:04:43;99448.28;;;14.95;80.95
3780;BME280;1905;52.482;9.802;2023-04-01T13:07:33;99459.16;;;14.92;80.23
3780;BME280;1905;52.482;9.802;2023-04-01T13:10:13;99461.50;;;14.85;79.84
3780;BME280;1905;52.482;9.802;2023-04-01T13:12:59;99472.63;;;14.79;80.39
3780;BME280;1905;52.482;9.802;2023-04-01T13:15:37;99474.81;;;14.74;80.71
3780;BME280;1905;52.482;9.802;2023-04-01T13:18:18;99491.00;;;14.71;80.69
3780;BME280;1905;52.482;9.802;2023-04-01T13:20:55;99490.03;;;14.61;79.96
3780;BME280;1905;52.482;9.802;2023-04-01T13:23:36;99495.59;;;14.58;80.46
3780;BME280;1905;52.482;9.802;2023-04-01T13:26:13;99499.81;;;14.50;80.53
3780;BME280;1905;52.482;9.802;2023-04-01T13:28:49;99497.06;;;14.40;80.92
3780;BME280;1905;52.482;9.802;2023-04-01T13:31:29;99504.28;;;14.38;80.16
3780;BME280;1905;52.482;9.802;2023-04-01T13:34:14;99506.44;;;14.33;80.59
3780;BME280;1905;52.482;9.802;2023-04-01T13:36:56;99512.47;;;14.24;80.73
3780;BME280;1905;52.482;9.802;2023-04-01T13:39:36;99511.00;;;14.20;81.03
3780;BME280;1905;52.482;9.802;2023-04-01T13:42:16;99518.69;;;14.12;80.87
3780;BME280;1905;52.482;9.802;2023-04-01T13:44:51;99528.13;;;14.05;81.18
3780;BME280;1905;52.482;9.802;2023-04-01T13:47:43;99528.56;;;13.99;81.38
3780;BME280;1905;52.482;9.802;2023-04-01T13:53:40;99531.78;;;13.80;81.55
3780;BME280;1905;52.482;9.802;2023-04-01T13:56:21;99541.91;;;13.75;81.51
3780;BME280;1905;52.482;9.802;2023-04-01T13:59:02;99545.59;;;13.72;81.75
3780;BME280;1905;52.482;9.802;2023-04-01T14:01:39;99537.09;;;13.56;81.40
3780;BME280;1905;52.482;9.802;2023-04-01T14:04:32;99549.63;;;13.54;82.05
3780;BME280;1905;52.482;9.802;2023-04-01T14:07:22;99559.75;;;13.49;81.89
3780;BME280;1905;52.482;9.802;2023-04-01T14:10:02;99569.22;;;13.41;81.79
3780;BME280;1905;52.482;9.802;2023-04-01T14:12:39;99562.22;;;13.40;82.31
3780;BME280;1905;52.482;9.802;2023-04-01T14:15:28;99566.50;;;13.30;82.12
3780;BME280;1905;52.482;9.802;2023-04-01T14:18:13;99579.88;;;13.28;81.74
3780;BME280;1905;52.482;9.802;2023-04-01T14:20:50;99589.22;;;13.21;81.71
3780;BME280;1905;52.482;9.802;2023-04-01T14:26:44;99583.53;;;13.15;82.29
3780;BME280;1905;52.482;9.802;2023-04-01T14:29:24;99593.69;;;13.08;82.12
3780;BME280;1905;52.482;9.802;2023-04-01T14:32:02;99595.81;;;13.03;82.36
3780;BME280;1905;52.482;9.802;2023-04-01T14:34:50;99606.63;;;13.00;82.28
3780;BME280;1905;52.482;9.802;2023-04-01T14:37:33;99614.78;;;12.97;82.18
3780;BME280;1905;52.482;9.802;2023-04-01T14:40:27;99614.19;;;12.93;82.37
3780;BME280;1905;52.482;9.802;2023-04-01T14:43:16;99617.88;;;12.91;82.57
3780;BME280;1905;52.482;9.802;2023-04-01T14:46:08;99629.34;;;12.79;83.14
3780;BME280;1905;52.482;9.802;2023-04-01T14:48:50;99630.81;;;12.70;82.91
3780;BME280;1905;52.482;9.802;2023-04-01T14:51:22;99637.81;;;12.71;82.38
3780;BME280;1905;52.482;9.802;2023-04-01T14:54:04;99630.94;;;12.69;82.29
3780;BME280;1905;52.482;9.802;2023-04-01T14:56:37;99644.38;;;12.66;83.17
3780;BME280;1905;52.482;9.802;2023-04-01T14:59:13;99638.25;;;12.52;82.51
3780;BME280;1905;52.482;9.802;2023-04-01T15:01:47;99639.91;;;12.53;82.49
3780;BME280;1905;52.482;9.802;2023-04-01T15:04:42;99656.00;;;12.50;82.79
3780;BME280;1905;52.482;9.802;2023-04-01T15:07:45;99649.34;;;12.45;82.98
3780;BME280;1905;52.482;9.802;2023-04-01T15:10:35;99661.31;;;12.38;83.44